Hlavní strana
METAR-TAF:

METAR-TAF

Letiště :

Yaoundé, Kamerun

zeměpisná šířka: 03-50N, zeměpisná délka: 011-31E, výška: 751 m

Aktuální stav počasí

Zpráva byla vytvořena před 43 minutami, v 21:00 UTC
Teplota 20°C
Vlhkost vzduchu 94%
Tlak 1015 hPa
Viditelnost: 6000 m
Skoro jasno ve výšce 600 ft

METAR: FKYS 222100Z /////KT 6000 FEW006 20/19 Q1015 NOSIG

Čas: 22:43 (21:43 UTC)

Předpověď počasí

Zpráva byla vytvořena před 4 hodinami a 43 minutami, v 17:00 UTC
Předpověď platná od 22 v 18 UTC do 23 v 18 UTC
vítr z různých směrů 3 kt
Viditelnost: 5000 m
Polojasno ve výšce 1600 ft
zákal
Změna
od 22 v 20 UTC do 22 v 22 UTC
Oblačno až skoro zataženo ve výšce 600 ft
Dočasný
od 23 v 03 UTC do 23 v 08 UTC
Viditelnost: 2000 m
kouřmo
Změna
od 23 v 08 UTC do 23 v 10 UTC
Polojasno ve výšce 1600 ft

TAF: FKYS 221700Z 2218/2318 VRB03KT 5000 HZ SCT016 BECMG 2220/2222 BKN006 TEMPO 2303/2308 2000 BR BECMG 2308/2310 SCT016

Stav a předpovědi počasí z více než 4 000 letišť (zprávy METAR a TAF).

Červené a žluté tečky na mapě představují dostupné meteorologické stanice.

Když kurzor umístíte na tečku, zobrazí se název stanice.

Pak kliknutím zobrazíte stav a předpověď počasí.

Chcete-li změnit mapu, kliknutím na zelené tlačítko se znaménkem +mapu přiblížíte, kliknutím na zelené tlačítko se znaménkem – mapu oddálíte a kliknutím na zelené šipky přejdete na sousední mapy.


METAR-TAF: